This is the latest recevied weather packets stored in our database for station/object LROD. If no packets are shown the sender has not sent any weather packets the latest 10 day(s).
| Time | Temp. | Humidity | Pressure | Rain* | Wind** | Luminosity | Snow |
|---|---|---|---|---|---|---|---|
| 1777665809 | 7.78° C | 53% | 1024 hPa | - | - | - | - |
| 1777664927 | 11.11° C | 41% | 1024 hPa | - | - | - | - |
| 1777664031 | 11.11° C | 41% | 1024 hPa | - | - | - | - |
| 1777663109 | 12.78° C | 36% | 1024 hPa | - | - | - | - |
| 1777662209 | 12.78° C | 36% | 1024 hPa | - | - | - | - |
| 1777661309 | 12.78° C | 36% | 1024 hPa | - | - | - | - |
| 1777660439 | 12.78° C | 36% | 1024 hPa | - | - | - | - |
| 1777659510 | 13.89° C | 31% | 1024 hPa | - | - | - | - |
| 1777658632 | 13.89° C | 31% | 1024 hPa | - | - | - | - |
| 1777657710 | 15° C | 29% | 1023 hPa | - | - | - | - |
| 1777656809 | 15° C | 29% | 1023 hPa | - | - | - | - |
| 1777655934 | 16.11° C | 27% | 1023 hPa | - | - | - | - |
| 1777655009 | 16.11° C | 27% | 1023 hPa | - | - | - | - |
| 1777654109 | 17.22° C | 25% | 1023 hPa | - | - | - | - |
| 1777653209 | 17.22° C | 25% | 1023 hPa | - | - | - | - |
| 1777652309 | 17.22° C | 25% | 1023 hPa | - | - | - | - |
| 1777651410 | 17.22° C | 25% | 1023 hPa | - | - | - | - |
| 1777650509 | 17.22° C | 24% | 1023 hPa | - | - | - | - |
| 1777649609 | 17.22° C | 24% | 1023 hPa | - | - | - | - |
| 1777648710 | 17.22° C | 24% | 1024 hPa | - | - | - | - |
| 1777647809 | 17.22° C | 24% | 1024 hPa | - | - | - | - |
| 1777646947 | 17.22° C | 27% | 1024 hPa | - | - | - | - |
| 1777646088 | 17.22° C | 27% | 1024 hPa | - | - | - | - |
| 1777644209 | 17.22° C | 25% | 1024 hPa | - | - | - | - |
| 1777643310 | 16.11° C | 27% | 1024 hPa | - | - | - | - |
* Rain since midnight (hover to see other rain measurements)
** Current wind speed in m/s (hover to see current wind gust speed)